Архив погоды в Богучанах

Метеограмма Богучаны
Понедельник, 17 Июня
Время местн. Темп Ветер Видим Явления Облачность нижн/средн/верх Атм. давл. Влжн Точка росы ВНГО R Сост. почвы Tg s
Напр Скр Прв ур.ст ур.м изм
07:00 +14.7° З,С-З 1 - 10 км слабый ливневый дождь облачно 740 752 -0.3 82% +11.7° 1 км 0 Влажная (без луж) +17° -
04:00 +16.3° З 1 - 20 км - облачно 740 752 -0.4 72% +11.2° 1 км - - - -
01:00 +16.5° штиль 0 - 50 км - облачно 741 752 -0.5 67% +10.3° 1 км - - - -
Воскресенье, 16 Июня
Время местн. Темп Ветер Видим Явления Облачность нижн/средн/верх Атм. давл. Влжн Точка росы ВНГО R Сост. почвы Tg s
Напр Скр Прв ур.ст ур.м изм
22:00 +16.6° З 1 - 20 км - облачно 741 753 +0.7 63% +9.6° 1 км - - - -
19:00 +26.6° В 2 - 20 км - преимущественно облачно 740 752 -0.9 31% +7.9° более 2.5 км 0.3 - - -
16:00 +27° С-З 1 - 20 км - облачно 741 753 -1.5 38% +11.4° 1.5 км - - - -
13:00 +21.9° С-З 1 - 20 км небо без изменений {ливневые осадки} облачно 743 754 -1.1 61% +14° более 2.5 км - - - -
10:00 +15.8° штиль 0 - 20 км ливневый дождь облачно 744 756 +0.2 78% +12° 1 км - - - -
07:00 +12.9° В,С-В 1 - 10 км слабый ливневый дождь облачно 744 756 +0.4 85% +10.5° 1 км 0 Влажная (без луж) +12° -
04:00 +13.2° штиль 0 - 20 км - облачно 743 755 +0.3 85% +10.7° 1 км - - - -
01:00 +14.4° штиль 0 - 50 км - облачно 743 755 +0.8 76% +10.3° более 2.5 км - - - -
Суббота, 15 Июня
Время местн. Темп Ветер Видим Явления Облачность нижн/средн/верх Атм. давл. Влжн Точка росы ВНГО R Сост. почвы Tg s
Напр Скр Прв ур.ст ур.м изм
22:00 +19.4° штиль 0 - 20 км - облачно 742 754 +0.6 57% +10.7° более 2.5 км - - - -
19:00 +23.5° штиль 0 - 20 км - облачно 742 753 +0.1 33% +6.1° 1 км 0 - - -
16:00 +24.9° З,С-З 2 - 20 км - облачно с прояснениями 742 753 -0.4 29% +5.6° 1 км - - - -
13:00 +22.7° С 1 - 20 км - переменная облачность 742 753 -1 36% +6.9° 1 км - - - -
10:00 +20.2° З,С-З 2 - 20 км - облачно с прояснениями 743 755 0 56% +11.2° 1 км - - - -
07:00 +15° З,С-З 1 - 20 км - переменная облачность 743 755 +0.9 73% +10.3° 1 км 0 Сухая (без трещин) +10° -
04:00 +13.6° З 1 - 20 км - облачно с прояснениями 742 754 +0.7 82% +10.6° 1 км - - - -
01:00 +14.7° З 1 - 50 км - облачно с прояснениями 741 753 +1.1 87% +12.6° 1 км - - - -
Пятница, 14 Июня
Время местн. Темп Ветер Видим Явления Облачность нижн/средн/верх Атм. давл. Влжн Точка росы ВНГО R Сост. почвы Tg s
Напр Скр Прв ур.ст ур.м изм
22:00 +18° штиль 0 - 20 км - облачно с прояснениями 740 752 +0.5 80% +14.5° 1 км - - - -
19:00 +20.5° З,Ю-З 2 16 20 км небо без изменений {ливневые осадки} облачно 740 751 +2.6 68% +14.3° 1 км 0 - - -
16:00 +29.8° З,Ю-З 3 - 20 км - облачно 737 748 -0.4 22% +6.1° 1 км - - - -
13:00 +29.5° З 4 - 20 км - переменная облачность 738 749 -1 22% +5.7° 1 км - - - -
10:00 +26.9° Ю 3 - 20 км - незначительная облачность 739 750 -0.7 37% +10.8° более 2.5 км - - - -
07:00 +17.5° С-В 1 - 20 км - ясно 739 751 -0.1 65% +10.8° более 2.5 км 0 Сухая (без трещин) +12° -
04:00 +14.5° штиль 0 - 20 км - ясно 739 751 -0.4 74% +10° более 2.5 км - - - -